DAOB/TID METAR and TAF weather

Enter ICAO airport designator
Station Type Date Time Source
DAOB METAR 2021/07/30 22:00 UTC NOAA

DAOB 302200Z 25005KT 9999 FEW026 31/02 Q1022


Station Type Date Time Source
DAOB Decoded METAR 2021/07/30 22:00 UTC NOAA

Tiaret, Algeria (DAOB) 35-15N 001-26E 1127M
Jul 30, 2021 - 06:00 PM EDT / 2021.07.30 2200 UTC
Wind: from the WSW (250 degrees) at 6 MPH (5 KT):0
Visibility: greater than 7 mile(s):0
Sky conditions: mostly clear
Temperature: 87 F (31 C)
Dew Point: 35 F (2 C)
Relative Humidity: 15%
Pressure (altimeter): 30.18 in. Hg (1022 hPa)
ob: DAOB 302200Z 25005KT 9999 FEW026 31/02 Q1022
cycle: 22

Station Type Date Time Source
DAOB TAF 2021/07/30 18:33 UTC NOAA

TAF DAOB 301700Z 3018/3118 34010KT 9999 FEW030 PROB40
TEMPO 3018/3103 FEW030CB PROB30
TEMPO 3018/3021 4000 -TSRA FEW023CB
BECMG 3021/3023 VRB02KT
BECMG 3109/3112 34010KT

Example: see airport list